首页
METAR-TAF:

METAR-TAF

机场 :

Türkmenbaşy, 土库曼斯坦

纬度: 40-03-48N, 经度: 053-00-26E, 海拔: 86米

当前天气观测

该预报发布于25分钟前的16:00 UTC
风速8节,风向西转西南
温度 28°C
湿度 62%
气压 1013 hPa
能见度10公里或以上
1500米以下无云,无积雨云

METAR: UTAK 201600Z 25008KT CAVOK 28/20 Q1013 R16R/CLRD70 NOSIG

时间: 21:25 (16:25 UTC)

预报

该预报发布于5小时和55分钟前的10:30 UTC
预报有效从20日的 12点(UTC)到 21日的 12点(UTC)
风速16节,风向西转西北,有时为26节阵风
能见度10公里或以上
散云层高于2000英尺
散云层高于10000英尺
短暂存在
从 20日的 12点(UTC)到 20日的 17点(UTC)
风速16节,风向西南,有时为26节阵风
能見度: 6000
多云层高于1000英尺
成为
从 20日的 17点(UTC)到 20日的 19点(UTC)
风速16节,风向
能見度: 4000
多云层高于800英尺
轻雾
短暂存在
从 20日的 20点(UTC)到 21日的 03点(UTC)
风速12节,风向西转西北
能見度: 0800
层高于200英尺
成为
从 21日的 03点(UTC)到 21日的 04点(UTC)
能见度10公里或以上
散云层高于2000英尺
短暂存在
从 21日的 04点(UTC)到 21日的 08点(UTC)
风速12节,风向南转西南
能見度: 6000
多云层高于1000英尺

TAF: UTAK 201030Z 2012/2112 30016G26KT 9999 SCT020 SCT100 TEMPO 2012/2017 23016G26KT 6000 BKN010 BECMG 2017/2019 36016KT 4000 BR BKN008 TEMPO 2020/2103 29012KT 0800 FG VV002 BECMG 2103/2104 9999 NSW SCT020 TEMPO 2104/2108 20012KT 6000 BKN010

超过4000个机场的气象观测和天气预报(METAR&TAF报告)。

可查询的气象台以黄色和红色小点在地图上表示。

将鼠标移到小点上方,可查看气象台名称。

然后点击查看天气观测和预报。

如需切换地图:点击带黑十字的绿色按钮放大地图;点击带横线的绿色按钮缩小地图;或者点击绿色箭头查看邻近地区的地图。


METAR-TAF: